Time;durP1;ratioP1;P1;durP2;ratioP2;P2;SDS_P1;SDS_P2;PMS_P1;PMS_P2;Temp;Humidity;BMP_temperature;BMP_pressure;BME280_temperature;BME280_humidity;BME280_pressure;Samples;Min_cycle;Max_cycle;Signal;HPM_P1;HPM_P2
2024/04/12 00:01:04;;;;;;;9.23;5.57;;;;;;;13.91;100.00;103069.25;5533891;25;20072;-69
2024/04/12 00:03:52;;;;;;;10.60;6.57;;;;;;;13.92;100.00;103056.38;5561818;25;20000;-68
2024/04/12 00:06:50;;;;;;;10.25;6.00;;;;;;;13.91;100.00;103046.50;5559276;25;20452;-69
2024/04/12 00:09:40;;;;;;;10.13;6.35;;;;;;;13.91;100.00;103044.59;5532704;25;20376;-68
2024/04/12 00:12:28;;;;;;;10.05;6.80;;;;;;;13.91;100.00;103044.59;5534476;25;20007;-68
2024/04/12 00:15:21;;;;;;;9.38;7.43;;;;;;;13.91;100.00;103054.72;5561263;25;20432;-68
2024/04/12 00:18:11;;;;;;;15.02;8.25;;;;;;;13.88;100.00;103042.31;5559477;25;20000;-69
2024/04/12 00:21:01;;;;;;;11.30;7.82;;;;;;;13.87;100.00;103037.91;5547568;25;20005;-68
2024/04/12 00:23:53;;;;;;;11.82;6.90;;;;;;;13.89;100.00;103048.63;5508013;25;20001;-69
2024/04/12 00:26:43;;;;;;;11.90;8.00;;;;;;;13.88;100.00;103039.59;5513867;25;19996;-69
2024/04/12 00:29:36;;;;;;;9.48;7.28;;;;;;;13.89;100.00;103030.28;5560576;25;20471;-69
2024/04/12 00:32:26;;;;;;;9.98;7.90;;;;;;;13.87;100.00;103040.63;5558179;25;20013;-69
2024/04/12 00:35:19;;;;;;;9.85;7.40;;;;;;;13.88;100.00;103035.97;5497239;26;20013;-69
2024/04/12 00:38:11;;;;;;;10.43;7.32;;;;;;;13.84;100.00;103030.97;5547385;25;19997;-69
2024/04/12 00:41:11;;;;;;;10.60;8.02;;;;;;;13.85;100.00;103034.56;5523570;26;20012;-69
2024/04/12 00:44:03;;;;;;;9.18;7.53;;;;;;;13.84;100.00;103032.91;5499905;25;20005;-69
2024/04/12 00:46:51;;;;;;;9.05;7.43;;;;;;;13.85;100.00;103026.34;5524888;25;20082;-71
2024/04/12 00:49:49;;;;;;;10.70;7.43;;;;;;;13.85;100.00;103024.44;5473104;26;19998;-69
2024/04/12 00:52:43;;;;;;;10.82;6.90;;;;;;;13.85;100.00;103010.75;5523510;26;20029;-69
2024/04/12 00:55:35;;;;;;;8.98;6.43;;;;;;;13.87;100.00;103018.72;5519101;26;20011;-68
2024/04/12 00:58:23;;;;;;;8.32;6.05;;;;;;;13.86;100.00;103011.56;5524409;25;20009;-68
2024/04/12 01:01:22;;;;;;;8.68;6.20;;;;;;;13.85;100.00;102999.78;5560203;25;20359;-69
2024/04/12 01:04:12;;;;;;;8.27;6.40;;;;;;;13.85;100.00;103007.16;5511390;25;19996;-69
2024/04/12 01:07:01;;;;;;;8.63;6.63;;;;;;;13.84;100.00;103013.72;5535184;25;20028;-69
2024/04/12 01:09:54;;;;;;;8.07;6.10;;;;;;;13.85;100.00;103009.88;5522976;26;20396;-69
2024/04/12 01:12:43;;;;;;;8.60;6.38;;;;;;;13.83;100.00;103003.84;5473953;25;19997;-70
2024/04/12 01:15:36;;;;;;;7.53;5.85;;;;;;;13.83;100.00;103004.66;5544085;25;20012;-68
2024/04/12 01:18:24;;;;;;;9.13;6.55;;;;;;;13.83;100.00;102987.41;5508094;25;20409;-69
2024/04/12 01:21:12;;;;;;;8.32;6.20;;;;;;;13.83;100.00;102995.63;5534943;25;20011;-68
2024/04/12 01:24:06;;;;;;;8.13;6.00;;;;;;;13.81;100.00;102981.31;5532511;25;19997;-68
2024/04/12 01:26:56;;;;;;;8.05;6.15;;;;;;;13.83;100.00;102976.44;5544664;25;20344;-68
2024/04/12 01:29:45;;;;;;;8.30;5.55;;;;;;;13.83;100.00;102979.19;5558954;25;19996;-68
2024/04/12 01:32:33;;;;;;;7.13;5.22;;;;;;;13.82;100.00;102966.53;5558816;25;20004;-68
2024/04/12 01:35:21;;;;;;;8.30;5.70;;;;;;;13.82;100.00;102955.56;5508170;25;20011;-68
2024/04/12 01:38:17;;;;;;;7.80;5.85;;;;;;;13.82;100.00;102950.09;5556823;25;20011;-68
2024/04/12 01:41:08;;;;;;;6.47;4.93;;;;;;;13.82;100.00;102950.91;5561171;25;20000;-68
2024/04/12 01:44:04;;;;;;;6.65;4.88;;;;;;;13.81;100.00;102951.19;5557385;25;20019;-68
2024/04/12 01:46:55;;;;;;;6.72;5.10;;;;;;;13.81;100.00;102951.19;5556334;25;20071;-68
2024/04/12 01:49:43;;;;;;;6.40;4.78;;;;;;;13.82;100.00;102948.19;5533465;25;20551;-67
2024/04/12 01:52:49;;;;;;;7.00;5.03;;;;;;;13.83;100.00;102954.50;5533077;25;20017;-69
2024/04/12 01:55:40;;;;;;;7.60;5.43;;;;;;;13.83;100.00;102960.00;5532749;25;20333;-69
2024/04/12 01:58:29;;;;;;;8.10;4.80;;;;;;;13.84;100.00;102959.75;5528529;25;20015;-69
2024/04/12 02:01:17;;;;;;;6.95;5.00;;;;;;;13.85;100.00;102957.81;5532808;25;19996;-67
2024/04/12 02:04:07;;;;;;;7.45;5.30;;;;;;;13.81;100.00;102960.22;5508846;25;20004;-68
2024/04/12 02:06:56;;;;;;;6.45;4.80;;;;;;;13.82;100.00;102972.00;5532065;25;20004;-68
2024/04/12 02:09:46;;;;;;;6.70;4.60;;;;;;;13.81;100.00;102967.63;5559369;25;20011;-67
2024/04/12 02:12:36;;;;;;;6.65;4.82;;;;;;;13.81;100.00;102971.19;5531047;25;20459;-68
2024/04/12 02:15:25;;;;;;;5.32;4.40;;;;;;;13.81;100.00;102964.88;5534484;25;20041;-67
2024/04/12 02:18:13;;;;;;;6.88;4.53;;;;;;;13.82;100.00;102966.53;5481989;25;20072;-68
2024/04/12 02:21:06;;;;;;;6.95;4.50;;;;;;;13.81;100.00;102960.22;5505416;25;20072;-69
2024/04/12 02:23:54;;;;;;;6.47;4.78;;;;;;;13.81;100.00;102959.41;5532741;25;19992;-68
2024/04/12 02:26:42;;;;;;;6.25;4.57;;;;;;;13.80;100.00;102964.00;5534360;25;20149;-69
2024/04/12 02:29:31;;;;;;;6.85;4.90;;;;;;;13.79;100.00;102967.84;5503716;25;20149;-68
2024/04/12 02:32:20;;;;;;;6.55;4.60;;;;;;;13.77;100.00;102969.16;5530880;25;19993;-69
2024/04/12 02:35:08;;;;;;;6.88;5.00;;;;;;;13.78;100.00;102970.81;5529813;25;20000;-69
2024/04/12 02:37:57;;;;;;;7.60;5.03;;;;;;;13.77;100.00;102969.97;5509540;25;20016;-69
2024/04/12 02:40:50;;;;;;;6.03;4.65;;;;;;;13.76;100.00;102973.81;5558940;25;20015;-69
2024/04/12 02:43:40;;;;;;;7.53;4.80;;;;;;;13.77;100.00;102971.88;5504111;25;19997;-68
2024/04/12 02:46:28;;;;;;;5.10;4.07;;;;;;;13.78;100.00;102970.81;5533835;25;20016;-69
2024/04/12 02:49:16;;;;;;;6.15;3.85;;;;;;;13.78;100.00;102974.41;5559624;25;20009;-69
2024/04/12 02:52:04;;;;;;;4.88;4.00;;;;;;;13.76;100.00;102978.47;5507664;25;20007;-70
2024/04/12 02:54:53;;;;;;;6.00;3.83;;;;;;;13.76;100.00;102978.47;5528226;25;20015;-69
2024/04/12 02:57:41;;;;;;;5.20;3.85;;;;;;;13.76;100.00;102962.00;5556117;25;20392;-68
2024/04/12 03:00:30;;;;;;;5.38;4.10;;;;;;;13.75;100.00;102972.13;5524821;25;20005;-70
2024/04/12 03:03:18;;;;;;;5.85;4.28;;;;;;;13.75;100.00;102965.81;5494199;26;20466;-69
2024/04/12 03:06:09;;;;;;;5.85;4.60;;;;;;;13.75;100.00;102965.81;5497791;26;20038;-69
2024/04/12 03:08:59;;;;;;;6.25;4.55;;;;;;;13.73;100.00;102962.47;5523230;25;20005;-68
2024/04/12 03:11:50;;;;;;;6.97;4.78;;;;;;;13.73;100.00;102962.47;5473652;26;20009;-68
2024/04/12 03:14:39;;;;;;;5.63;4.28;;;;;;;13.75;100.00;102965.81;5525057;25;20008;-67
2024/04/12 03:17:28;;;;;;;5.15;3.80;;;;;;;13.74;100.00;102964.16;5524021;26;20001;-69
2024/04/12 03:20:18;;;;;;;5.00;3.70;;;;;;;13.75;100.00;102963.06;5513742;26;20013;-69
2024/04/12 03:23:06;;;;;;;4.25;3.67;;;;;;;13.74;100.00;102962.25;5497992;26;20001;-69
2024/04/12 03:25:56;;;;;;;4.28;3.42;;;;;;;13.75;100.00;102961.16;5522257;25;20473;-69
2024/04/12 03:28:45;;;;;;;4.15;3.30;;;;;;;13.76;100.00;102959.28;5524311;25;20022;-70
2024/04/12 03:31:38;;;;;;;4.80;3.25;;;;;;;13.76;100.00;102953.78;5525882;26;20094;-69
2024/04/12 03:34:27;;;;;;;4.45;3.20;;;;;;;13.78;100.00;102937.94;5463061;26;20002;-69
2024/04/12 03:37:36;;;;;;;5.88;3.20;;;;;;;13.75;100.00;102933.75;5488500;26;20010;-69
2024/04/12 03:40:25;;;;;;;4.38;3.20;;;;;;;13.76;100.00;102929.13;5511905;26;20002;-70
2024/04/12 03:43:13;;;;;;;3.78;3.03;;;;;;;13.76;100.00;102931.88;5488997;26;20030;-70
2024/04/12 03:46:01;;;;;;;3.05;2.67;;;;;;;13.77;100.00;102944.50;5492660;26;20134;-68
2024/04/12 03:48:53;;;;;;;3.15;2.85;;;;;;;13.76;100.00;102940.09;5486986;26;20070;-68
2024/04/12 03:51:46;;;;;;;2.90;2.60;;;;;;;13.76;100.00;102934.63;5440802;26;20012;-69
2024/04/12 03:54:36;;;;;;;3.20;2.50;;;;;;;13.76;100.00;102931.88;5470984;25;20352;-69
2024/04/12 03:57:26;;;;;;;3.88;2.70;;;;;;;13.75;100.00;102928.28;5522742;26;19997;-69
2024/04/12 04:00:15;;;;;;;5.40;2.83;;;;;;;13.76;100.00;102918.19;5529520;25;19996;-69
2024/04/12 04:03:09;;;;;;;3.55;2.90;;;;;;;13.75;100.00;102921.97;5560578;25;20068;-69
2024/04/12 04:05:58;;;;;;;4.90;3.50;;;;;;;13.74;100.00;102926.63;5530139;25;20002;-69
2024/04/12 04:08:49;;;;;;;7.57;3.35;;;;;;;13.75;100.00;102927.44;5522872;26;19997;-69
2024/04/12 04:11:42;;;;;;;5.18;3.70;;;;;;;13.74;100.00;102932.09;5523269;26;20065;-69
2024/04/12 04:14:32;;;;;;;6.72;3.50;;;;;;;13.76;100.00;102937.34;5497896;26;20073;-69
2024/04/12 04:17:29;;;;;;;6.53;3.65;;;;;;;13.76;100.00;102934.63;5522633;25;20010;-70
2024/04/12 04:20:20;;;;;;;6.65;3.60;;;;;;;13.77;100.00;102930.78;5525460;26;20010;-69
2024/04/12 04:23:08;;;;;;;4.45;3.22;;;;;;;13.76;100.00;102912.69;5543908;26;20008;-71
2024/04/12 04:25:56;;;;;;;5.28;3.60;;;;;;;13.77;100.00;102914.34;5523840;25;20059;-67
2024/04/12 04:28:44;;;;;;;4.95;3.28;;;;;;;13.76;100.00;102904.47;5495903;26;20130;-68
2024/04/12 04:31:47;;;;;;;5.00;3.47;;;;;;;13.75;100.00;102905.53;5496904;26;20013;-65
2024/04/12 04:34:36;;;;;;;6.57;3.63;;;;;;;13.75;100.00;102906.34;5508380;26;19998;-67
2024/04/12 04:37:27;;;;;;;5.90;3.40;;;;;;;13.76;100.00;102901.75;5490764;25;19998;-69
2024/04/12 04:40:25;;;;;;;5.03;3.53;;;;;;;13.77;100.00;102911.63;5501815;26;20047;-68
2024/04/12 04:43:17;;;;;;;6.78;4.25;;;;;;;13.78;100.00;102916.00;5524123;26;20465;-68
2024/04/12 04:49:13;;;;;;;7.28;4.28;;;;;;;13.76;100.00;102919.00;5522253;26;20001;-70
2024/04/12 04:52:02;;;;;;;6.50;4.30;;;;;;;13.76;100.00;102912.69;5523725;26;20001;-69
2024/04/12 04:54:50;;;;;;;7.50;4.50;;;;;;;13.76;100.00;102919.00;5522332;26;20002;-69
2024/04/12 04:57:43;;;;;;;8.48;5.00;;;;;;;13.76;100.00;102920.91;5476959;26;20006;-69
2024/04/12 05:00:40;;;;;;;7.45;4.50;;;;;;;13.76;100.00;102918.19;5496330;26;20009;-69
2024/04/12 05:03:29;;;;;;;9.85;5.47;;;;;;;13.77;100.00;102919.84;5523235;26;20033;-69
2024/04/12 05:06:27;;;;;;;9.45;5.78;;;;;;;13.78;100.00;102921.50;5504074;25;20016;-71
2024/04/12 05:09:18;;;;;;;10.75;6.70;;;;;;;13.77;100.00;102922.56;5532121;25;20040;-68
2024/04/12 05:12:06;;;;;;;9.98;6.25;;;;;;;13.76;100.00;102918.19;5532816;25;20402;-67
2024/04/12 05:14:56;;;;;;;10.30;6.75;;;;;;;13.76;100.00;102919.00;5567729;25;20076;-69
2024/04/12 05:17:44;;;;;;;10.45;6.45;;;;;;;13.78;100.00;102913.25;5549946;25;19993;-69
2024/04/12 05:20:40;;;;;;;9.52;6.22;;;;;;;13.80;100.00;102914.69;5533750;25;20015;-69
2024/04/12 05:23:29;;;;;;;9.23;6.30;;;;;;;13.81;100.00;102916.38;5458402;25;19997;-68
2024/04/12 05:26:20;;;;;;;10.90;6.75;;;;;;;13.82;100.00;102912.56;5528792;25;20012;-69
2024/04/12 05:29:12;;;;;;;10.63;6.95;;;;;;;13.82;100.00;102912.56;5511877;25;20036;-68
2024/04/12 05:32:06;;;;;;;13.27;6.95;;;;;;;13.90;100.00;102914.09;5569779;25;20012;-68
2024/04/12 05:35:09;;;;;;;13.27;8.30;;;;;;;13.90;100.00;102918.75;5515723;25;20384;-69
2024/04/12 05:38:07;;;;;;;12.38;7.75;;;;;;;13.90;100.00;102924.22;4762311;25;10000606;-68
2024/04/12 05:40:57;;;;;;;11.25;7.90;;;;;;;13.88;100.00;102927.22;5531364;25;20008;-69
2024/04/12 05:43:45;;;;;;;13.27;8.32;;;;;;;13.88;100.00;102923.63;5557168;25;20007;-69
2024/04/12 05:46:54;;;;;;;12.30;7.85;;;;;;;13.89;100.00;102923.41;5555659;25;20001;-68
2024/04/12 05:49:43;;;;;;;12.90;8.02;;;;;;;13.90;100.00;102914.09;5534289;25;20001;-69
2024/04/12 05:52:34;;;;;;;13.38;8.30;;;;;;;13.93;100.00;102912.81;5553103;25;20429;-69
2024/04/12 05:55:24;;;;;;;14.10;8.35;;;;;;;13.92;100.00;102916.59;5526928;25;20165;-69
2024/04/12 05:58:14;;;;;;;12.77;8.23;;;;;;;13.91;100.00;102915.78;5575333;25;20004;-69
2024/04/12 06:01:07;;;;;;;13.10;8.32;;;;;;;13.94;100.00;102911.72;5487172;25;19997;-70
2024/04/12 06:03:56;;;;;;;12.35;7.88;;;;;;;13.94;100.00;102907.06;5527954;25;19992;-69
2024/04/12 06:06:44;;;;;;;12.90;8.02;;;;;;;13.96;100.00;102907.66;5529427;25;20450;-69
2024/04/12 06:09:34;;;;;;;11.30;7.03;;;;;;;13.97;100.00;102897.53;5553092;25;20015;-70
2024/04/12 06:12:24;;;;;;;13.00;7.72;;;;;;;14.02;100.00;102894.91;5526558;25;20001;-69
2024/04/12 06:15:15;;;;;;;13.05;7.40;;;;;;;14.00;100.00;102903.38;5504128;25;20088;-70
2024/04/12 06:18:08;;;;;;;12.88;7.63;;;;;;;14.04;100.00;102898.25;5529495;25;20048;-71
2024/04/12 06:20:57;;;;;;;11.25;6.82;;;;;;;14.02;100.00;102901.25;5541337;25;20347;-69
2024/04/12 06:23:49;;;;;;;14.63;8.27;;;;;;;14.03;100.00;102904.81;5556357;25;19997;-70
2024/04/12 06:26:39;;;;;;;12.55;7.10;;;;;;;14.03;100.00;102911.13;5557937;25;20003;-70
2024/04/12 06:29:28;;;;;;;12.45;7.90;;;;;;;14.07;100.00;102914.22;5552276;25;20481;-70
2024/04/12 06:32:27;;;;;;;14.88;7.57;;;;;;;14.09;100.00;102911.22;5509493;25;20408;-70
2024/04/12 06:35:20;;;;;;;10.82;6.72;;;;;;;14.07;100.00;102914.22;5505207;25;20001;-70
2024/04/12 06:38:08;;;;;;;12.32;6.50;;;;;;;14.15;100.00;102924.00;5495047;26;20029;-70
2024/04/12 06:40:56;;;;;;;13.13;6.97;;;;;;;14.13;100.00;102920.66;5528563;25;20444;-70
2024/04/12 06:43:45;;;;;;;12.38;7.13;;;;;;;14.15;100.00;102922.06;5560063;25;20144;-69
2024/04/12 06:46:35;;;;;;;11.82;7.22;;;;;;;14.14;100.00;102927.78;5564652;25;20000;-69
2024/04/12 06:49:27;;;;;;;12.70;7.22;;;;;;;14.15;100.00;102926.72;5535725;25;20452;-68
2024/04/12 06:52:20;;;;;;;10.80;5.80;;;;;;;14.18;100.00;102932.56;5537332;25;20008;-69
2024/04/12 06:55:14;;;;;;;14.40;8.10;;;;;;;14.21;100.00;102931.22;5561708;25;19997;-68
2024/04/12 06:58:04;;;;;;;15.07;8.20;;;;;;;14.23;100.00;102924.44;5511908;25;20000;-67
2024/04/12 07:00:56;;;;;;;12.82;7.55;;;;;;;14.23;100.00;102918.13;5511258;25;20000;-67
2024/04/12 07:03:46;;;;;;;13.13;7.22;;;;;;;14.27;100.00;102917.41;5537099;25;20005;-68
2024/04/12 07:06:35;;;;;;;17.60;8.18;;;;;;;14.26;100.00;102921.22;5564237;25;20460;-67
2024/04/12 07:09:23;;;;;;;14.68;7.95;;;;;;;14.26;100.00;102920.38;5557508;25;20033;-68
2024/04/12 07:12:13;;;;;;;14.50;8.43;;;;;;;14.27;100.00;102933.03;5522309;25;20000;-70
2024/04/12 07:15:09;;;;;;;10.63;6.55;;;;;;;14.31;100.00;102931.47;5511315;25;20029;-67
2024/04/12 07:18:02;;;;;;;14.38;7.82;;;;;;;14.30;100.00;102928.97;5564811;25;20436;-68
2024/04/12 07:20:52;;;;;;;15.90;8.13;;;;;;;14.30;100.00;102929.78;5519768;25;20002;-68
2024/04/12 07:23:46;;;;;;;15.68;7.53;;;;;;;14.31;100.00;102942.44;5525198;25;20463;-67
2024/04/12 07:26:37;;;;;;;11.80;7.50;;;;;;;14.32;100.00;102944.09;5532791;25;20032;-68
2024/04/12 07:29:25;;;;;;;16.73;8.20;;;;;;;14.33;100.00;102943.00;5510808;25;20419;-67
2024/04/12 07:32:14;;;;;;;12.75;7.60;;;;;;;14.35;100.00;102932.63;5509593;25;20409;-68
2024/04/12 07:35:22;;;;;;;15.10;8.68;;;;;;;14.38;100.00;102932.19;5529151;25;20068;-68
2024/04/12 07:38:11;;;;;;;15.32;8.48;;;;;;;14.39;100.00;102933.84;5552706;25;19993;-66
2024/04/12 07:40:59;;;;;;;15.32;7.93;;;;;;;14.43;100.00;102935.03;5534384;25;20012;-68
2024/04/12 07:43:47;;;;;;;13.40;8.02;;;;;;;14.46;100.00;102945.50;5556374;25;20017;-67
2024/04/12 07:46:35;;;;;;;13.70;7.95;;;;;;;14.48;100.00;102937.88;5571863;25;20000;-67
2024/04/12 07:49:24;;;;;;;15.93;8.40;;;;;;;14.52;100.00;102937.38;5572348;25;20010;-68
2024/04/12 07:52:13;;;;;;;14.45;8.65;;;;;;;14.53;100.00;102925.31;5521005;25;20306;-68
2024/04/12 07:55:01;;;;;;;13.30;7.68;;;;;;;14.54;100.00;102927.84;5535289;25;19996;-67
2024/04/12 07:57:52;;;;;;;14.55;8.95;;;;;;;14.55;100.00;102934.16;5509206;25;20472;-67
2024/04/12 08:00:45;;;;;;;15.25;8.95;;;;;;;14.56;100.00;102933.13;5497359;26;20390;-67
2024/04/12 08:03:36;;;;;;;16.30;9.10;;;;;;;14.58;100.00;102933.72;5524085;25;19998;-67
2024/04/12 08:06:55;;;;;;;20.35;10.20;;;;;;;14.59;100.00;102935.38;5486882;26;20025;-67
2024/04/12 08:10:09;;;;;;;18.98;9.52;;;;;;;14.61;100.00;102934.03;5518796;25;20351;-67
2024/04/12 08:12:57;;;;;;;17.23;9.70;;;;;;;14.63;100.00;102934.63;5562825;25;19996;-68
2024/04/12 08:15:49;;;;;;;15.52;10.02;;;;;;;14.63;100.00;102937.38;5516381;25;19997;-67
2024/04/12 08:18:37;;;;;;;19.80;9.95;;;;;;;14.63;100.00;102937.38;5531008;25;19993;-68
2024/04/12 08:21:37;;;;;;;18.40;10.20;;;;;;;14.64;100.00;102943.69;5508532;25;20001;-67
2024/04/12 08:24:27;;;;;;;18.98;9.30;;;;;;;14.65;100.00;102942.63;5512100;25;20008;-68
2024/04/12 08:27:18;;;;;;;17.73;9.10;;;;;;;14.66;100.00;102950.59;5561877;25;20012;-68
2024/04/12 08:30:13;;;;;;;16.95;8.35;;;;;;;14.69;100.00;102952.03;5484840;25;20000;-69
2024/04/12 08:33:14;;;;;;;13.07;7.55;;;;;;;14.72;100.00;102947.97;5539972;25;20448;-67
2024/04/12 08:36:10;;;;;;;18.20;9.45;;;;;;;14.75;100.00;102953.81;5490480;25;20001;-68
2024/04/12 08:39:25;;;;;;;16.00;9.20;;;;;;;14.76;100.00;102951.88;5570098;25;20033;-65
2024/04/12 08:42:14;;;;;;;19.13;9.50;;;;;;;14.78;100.00;102964.28;5540840;26;20449;-65
2024/04/12 08:45:17;;;;;;;16.52;8.93;;;;;;;14.79;100.00;102971.47;5570802;25;20653;-67
2024/04/12 08:48:09;;;;;;;15.77;7.88;;;;;;;14.83;100.00;102963.56;5515094;25;19997;-67
2024/04/12 08:51:04;;;;;;;14.50;7.72;;;;;;;14.86;100.00;102961.19;5572949;25;20003;-66
2024/04/12 08:53:55;;;;;;;17.75;8.75;;;;;;;14.91;100.00;102957.66;5509348;25;19997;-65
2024/04/12 08:56:46;;;;;;;16.05;8.88;;;;;;;14.95;100.00;102961.59;5576161;25;20007;-66
2024/04/12 08:59:46;;;;;;;16.23;7.70;;;;;;;14.98;100.00;102954.78;5543710;25;20445;-68
2024/04/12 09:02:48;;;;;;;18.20;8.27;;;;;;;15.02;100.00;102958.72;5509436;25;20001;-68
2024/04/12 09:05:40;;;;;;;16.08;8.63;;;;;;;15.04;100.00;102962.88;5507736;25;20003;-68
2024/04/12 09:08:31;;;;;;;17.65;7.97;;;;;;;15.11;100.00;102962.72;5531629;25;20014;-69
2024/04/12 09:11:25;;;;;;;15.93;8.85;;;;;;;15.15;100.00;102958.41;5531946;25;20005;-69
2024/04/12 09:14:20;;;;;;;17.20;8.75;;;;;;;15.19;100.00;102967.00;5580796;25;20322;-69
2024/04/12 09:17:14;;;;;;;17.35;8.25;;;;;;;15.23;100.00;102944.28;5562870;25;20017;-68
2024/04/12 09:20:04;;;;;;;14.77;7.88;;;;;;;15.29;100.00;102932.28;5535514;25;20011;-68
2024/04/12 09:22:54;;;;;;;13.88;7.68;;;;;;;15.34;100.00;102932.41;5531021;25;20010;-69
2024/04/12 09:25:55;;;;;;;14.32;8.15;;;;;;;15.38;100.00;102948.38;5511602;25;19993;-68
2024/04/12 09:28:47;;;;;;;13.20;7.63;;;;;;;15.43;100.00;102943.78;5483861;25;20496;-69
2024/04/12 09:34:46;;;;;;;13.77;7.55;;;;;;;15.48;100.00;102951.28;5529647;25;19996;-66
2024/04/12 09:37:44;;;;;;;11.90;6.25;;;;;;;15.51;100.00;102950.78;5569925;25;19996;-68
2024/04/12 09:40:34;;;;;;;13.63;7.25;;;;;;;15.57;100.00;102944.31;5525644;25;20001;-68
2024/04/12 09:43:25;;;;;;;17.50;7.10;;;;;;;15.61;100.00;102939.13;5496959;26;20050;-68
2024/04/12 09:46:23;;;;;;;13.88;6.97;;;;;;;15.64;100.00;102933.97;5524397;25;19997;-68
2024/04/12 10:39:33;;;;;;;35.55;17.02;;;;;;;16.55;100.00;102911.63;5467846;25;20070;-69
2024/04/12 10:42:25;;;;;;;24.15;12.80;;;;;;;16.58;100.00;102916.59;5473713;25;20054;-68
2024/04/12 10:45:17;;;;;;;26.75;13.75;;;;;;;16.61;100.00;102916.09;5508116;25;20009;-68
2024/04/12 10:48:06;;;;;;;15.23;8.55;;;;;;;16.69;100.00;102911.22;5510412;25;19993;-69
2024/04/12 10:50:55;;;;;;;44.47;21.65;;;;;;;16.71;100.00;102909.84;5506596;25;20001;-68
2024/04/12 10:53:46;;;;;;;16.30;8.10;;;;;;;16.81;100.00;102915.53;5529710;25;20001;-68
2024/04/12 10:56:35;;;;;;;15.57;8.70;;;;;;;16.89;100.00;102908.72;5481858;25;20053;-69
2024/04/12 10:59:30;;;;;;;24.30;12.65;;;;;;;16.91;100.00;102897.44;5557725;25;20000;-68
2024/04/12 11:02:18;;;;;;;17.80;8.17;;;;;;;16.93;100.00;102909.00;5501427;25;19996;-68
2024/04/12 11:05:38;;;;;;;17.15;8.13;;;;;;;17.03;100.00;102901.69;5530130;25;20046;-69
2024/04/12 11:08:15;;;;;;;13.93;7.30;;;;;;;17.11;100.00;102913.34;5537301;25;20072;-69
2024/04/12 11:11:17;;;;;;;18.40;9.63;;;;;;;17.10;100.00;102906.16;5576775;25;19997;-68
2024/04/12 11:14:15;;;;;;;14.20;7.18;;;;;;;17.13;100.00;102902.91;5531612;25;20001;-68
2024/04/12 11:32:44;;;;;;;21.45;9.85;;;;;;;17.41;100.00;102883.31;4777676;25;10000738;-69
2024/04/12 11:35:35;;;;;;;12.77;6.35;;;;;;;17.45;100.00;102892.69;5508168;25;20009;-69
2024/04/12 11:38:23;;;;;;;14.38;6.88;;;;;;;17.58;100.00;102890.56;5484733;25;19992;-69
2024/04/12 11:41:15;;;;;;;13.85;6.25;;;;;;;17.63;100.00;102882.31;5560200;25;20000;-69
2024/04/12 11:44:05;;;;;;;17.88;8.98;;;;;;;17.66;100.00;102884.56;5505966;25;20007;-70
2024/04/12 11:46:56;;;;;;;15.55;6.22;;;;;;;17.69;100.00;102881.28;5543990;25;20000;-69
2024/04/12 11:49:45;;;;;;;13.38;5.85;;;;;;;17.71;100.00;102872.75;5570389;25;20000;-68
2024/04/12 11:52:35;;;;;;;13.02;5.60;;;;;;;17.69;100.00;102881.28;5556099;25;20013;-70
2024/04/12 11:55:26;;;;;;;14.18;6.18;;;;;;;17.73;100.00;102879.66;5558460;25;20029;-70
2024/04/12 11:58:16;;;;;;;11.98;6.07;;;;;;;17.76;100.00;102870.03;5505603;25;20719;-68
2024/04/12 12:01:04;;;;;;;21.38;11.35;;;;;;;17.71;100.00;102862.53;5503366;25;20414;-68
2024/04/12 12:03:54;;;;;;;16.48;8.55;;;;;;;17.71;100.00;102862.53;5532581;25;20590;-69
2024/04/12 12:06:43;;;;;;;17.17;6.50;;;;;;;17.71;100.00;102861.72;5558895;25;20000;-69
2024/04/12 12:09:36;;;;;;;15.38;6.05;;;;;;;17.74;100.00;102859.25;5533277;25;20397;-69
2024/04/12 12:12:26;;;;;;;12.25;5.80;;;;;;;17.75;100.00;102863.69;5556368;25;20019;-69
2024/04/12 12:15:15;;;;;;;15.05;6.00;;;;;;;17.80;100.00;102863.75;5508612;25;20338;-68
2024/04/12 12:18:04;;;;;;;14.45;5.50;;;;;;;17.89;100.00;102864.03;5535247;25;20012;-69
2024/04/12 12:20:53;;;;;;;13.57;5.93;;;;;;;17.87;100.00;102866.22;5533714;25;20024;-69
2024/04/12 12:23:42;;;;;;;19.00;7.85;;;;;;;17.93;100.00;102864.34;5552821;25;20001;-68
2024/04/12 12:26:34;;;;;;;13.65;5.63;;;;;;;17.95;100.00;102856.66;5505683;25;20012;-68
2024/04/12 12:29:25;;;;;;;15.50;6.85;;;;;;;18.00;100.00;102870.47;5555964;25;20310;-68
2024/04/12 12:32:13;;;;;;;11.20;5.85;;;;;;;18.02;100.00;102871.84;5526249;25;20016;-69
2024/04/12 12:35:01;;;;;;;13.43;6.05;;;;;;;18.04;100.00;102866.06;5555345;25;20011;-69
2024/04/12 12:37:50;;;;;;;15.20;6.90;;;;;;;18.03;100.00;102853.38;5567375;25;20075;-69
2024/04/12 12:40:38;;;;;;;12.70;6.25;;;;;;;18.05;100.00;102848.41;5506466;25;20009;-68
2024/04/12 12:43:28;;;;;;;15.13;7.05;;;;;;;18.03;100.00;102853.38;5504007;25;20000;-69
2024/04/12 12:46:17;;;;;;;14.73;7.40;;;;;;;18.01;100.00;102848.09;5505883;25;20005;-68
2024/04/12 12:49:07;;;;;;;13.18;6.35;;;;;;;18.05;100.00;102851.16;5517812;25;20013;-69
2024/04/12 12:51:56;;;;;;;15.00;6.80;;;;;;;18.07;100.00;102843.47;5525618;25;20080;-69
2024/04/12 12:54:47;;;;;;;13.52;5.65;;;;;;;18.15;100.00;102840.16;5507607;25;20033;-69
2024/04/12 12:57:38;;;;;;;13.60;5.57;;;;;;;18.20;100.00;102836.59;5529986;25;19997;-69
2024/04/12 13:00:34;;;;;;;13.55;5.25;;;;;;;18.31;100.00;102841.06;5594703;25;20070;-70
2024/04/12 13:03:29;;;;;;;14.17;5.60;;;;;;;18.43;100.00;102829.78;5532684;25;19996;-69
2024/04/12 13:06:24;;;;;;;12.70;4.88;;;;;;;18.43;100.00;102825.09;5540139;25;20298;-68
2024/04/12 13:09:17;;;;;;;11.30;4.88;;;;;;;18.46;100.00;102819.00;5478510;26;20035;-67
2024/04/12 13:12:09;;;;;;;10.05;4.90;;;;;;;18.47;100.00;102819.84;5507784;25;20009;-70
2024/04/12 13:14:58;;;;;;;12.80;5.13;;;;;;;18.47;100.00;102800.50;5555678;25;20028;-69
2024/04/12 13:17:49;;;;;;;13.10;5.40;;;;;;;18.40;100.00;102806.31;5567617;25;20023;-70
2024/04/12 13:20:37;;;;;;;13.52;5.80;;;;;;;18.38;100.00;102808.53;5527449;25;20428;-69
2024/04/12 13:23:26;;;;;;;11.88;5.03;;;;;;;18.39;100.00;102793.59;5504240;25;20000;-69
2024/04/12 13:26:25;;;;;;;13.65;5.80;;;;;;;18.38;100.00;102796.66;5537667;25;20002;-69
2024/04/12 13:29:13;;;;;;;10.60;4.75;;;;;;;18.41;100.00;102798.88;5493213;26;20012;-69
2024/04/12 13:32:01;;;;;;;11.43;5.32;;;;;;;18.44;100.00;102795.56;5484382;25;20057;-70
2024/04/12 13:34:54;;;;;;;12.10;5.43;;;;;;;18.46;100.00;102787.81;5504815;25;20523;-70
2024/04/12 13:37:43;;;;;;;11.73;5.10;;;;;;;18.49;100.00;102795.56;5515607;25;20002;-68
2024/04/12 13:40:31;;;;;;;12.05;5.55;;;;;;;18.53;100.00;102791.16;5592556;25;20347;-68
2024/04/12 13:43:19;;;;;;;14.13;5.70;;;;;;;18.56;100.00;102785.06;5590801;25;20392;-69
2024/04/12 13:52:25;;;;;;;12.40;5.55;;;;;;;18.61;100.00;102770.44;5534035;25;20001;-69
2024/04/12 13:55:14;;;;;;;10.45;5.22;;;;;;;18.60;100.00;102764.09;5481636;25;19997;-69
2024/04/12 13:58:05;;;;;;;13.60;5.70;;;;;;;18.68;100.00;102765.47;5584167;25;20436;-69
2024/04/12 14:00:56;;;;;;;8.95;4.38;;;;;;;18.76;100.00;102755.81;5534457;25;20033;-69
2024/04/12 14:03:47;;;;;;;11.77;4.40;;;;;;;18.79;100.00;102764.44;5492961;26;20006;-69
2024/04/12 14:06:37;;;;;;;10.98;4.20;;;;;;;18.87;100.00;102760.28;5519816;26;20004;-69
2024/04/12 14:09:25;;;;;;;15.57;4.45;;;;;;;18.88;100.00;102753.63;5493095;26;20069;-69
2024/04/12 14:12:13;;;;;;;9.88;4.45;;;;;;;18.89;100.00;102747.84;5490851;26;20012;-69
2024/04/12 14:15:01;;;;;;;10.80;4.38;;;;;;;18.89;100.00;102735.97;5529195;25;20359;-68
2024/04/12 14:17:52;;;;;;;16.17;5.70;;;;;;;18.89;100.00;102744.25;5557391;25;20064;-68
2024/04/12 14:20:41;;;;;;;12.68;4.35;;;;;;;18.88;100.00;102750.88;5533446;25;19993;-68